Weather at Suvarnabhumi Airport

Public forecast

Using degrees Celsius for public forecast. Weather courtesy of forecast.io.

Current aviation weather report (METAR) for Suvarnabhumi Airport

2024/03/03 08:30 (retrieved 16 minutes ago)

VTBS 030830Z 21008KT 160V250 9999 FEW020 35/22 Q1008 NOSIG

Aviation forecast (TAF) for Suvarnabhumi Airport

2024/03/03 06:00 (retrieved 3 hours ago)

TAF VTBD 030500Z 0306/0412 18008KT 9999 FEW020 TAF VTBS 030500Z 0306/0412 20010KT 9999 FEW020